Time;durP1;ratioP1;P1;durP2;ratioP2;P2;SDS_P1;SDS_P2;PMS_P1;PMS_P2;Temp;Humidity;BMP_temperature;BMP_pressure;BME280_temperature;BME280_humidity;BME280_pressure;Samples;Min_cycle;Max_cycle;Signal;HPM_P1;HPM_P2
2023/08/12 00:00:10;;;;;;;;;;;;;;;19.35;56.24;95188.06;4212669;28;19986;-78
2023/08/12 00:02:13;;;;;;;;;;;;;;;19.35;56.18;95183.53;4214833;28;20381;-77
2023/08/12 00:04:16;;;;;;;;;;;;;;;19.35;56.00;95178.22;4213134;28;20538;-76
2023/08/12 00:06:17;;;;;;;;;;;;;;;19.35;55.94;95180.09;4216038;27;19928;-76
2023/08/12 00:08:19;;;;;;;;;;;;;;;19.34;55.98;95178.47;4226993;28;20120;-77
2023/08/12 00:10:21;;;;;;;;;;;;;;;19.31;56.10;95184.97;4224107;28;19923;-74
2023/08/12 00:12:22;;;;;;;;;;;;;;;19.31;55.85;95186.81;4219741;28;20019;-76
2023/08/12 00:14:24;;;;;;;;;;;;;;;19.34;55.83;95178.47;4222957;28;20395;-74
2023/08/12 00:16:26;;;;;;;;;;;;;;;19.33;55.72;95179.47;4215761;28;20384;-77
2023/08/12 00:18:28;;;;;;;;;;;;;;;19.32;55.68;95175.19;4221319;28;19928;-76
2023/08/12 00:20:30;;;;;;;;;;;;;;;19.32;55.68;95181.31;4213699;28;19924;-74
2023/08/12 00:22:31;;;;;;;;;;;;;;;19.31;55.73;95174.34;4221818;28;19924;-77
2023/08/12 00:24:33;;;;;;;;;;;;;;;19.26;55.79;95182.09;4215089;28;19947;-75
2023/08/12 00:26:36;;;;;;;;;;;;;;;19.26;55.78;95178.63;4222287;28;19924;-77
2023/08/12 00:28:37;;;;;;;;;;;;;;;19.27;55.70;95177.59;4201437;28;19932;-75
2023/08/12 00:30:39;;;;;;;;;;;;;;;19.24;55.78;95170.88;4220707;28;19924;-76
2023/08/12 00:32:41;;;;;;;;;;;;;;;19.27;55.83;95172.28;4225133;28;19924;-77
2023/08/12 00:34:42;;;;;;;;;;;;;;;19.21;55.50;95169.44;4218743;28;19923;-77
2023/08/12 00:36:44;;;;;;;;;;;;;;;19.15;55.96;95175.53;4216355;28;20347;-76
2023/08/12 00:38:45;;;;;;;;;;;;;;;19.12;55.88;95172.47;4216141;28;19942;-78
2023/08/12 00:40:47;;;;;;;;;;;;;;;19.13;55.89;95168.81;4214486;28;19982;-77
2023/08/12 00:42:49;;;;;;;;;;;;;;;19.12;55.81;95169.81;4225702;28;20404;-76
2023/08/12 00:44:51;;;;;;;;;;;;;;;19.05;56.25;95174.28;4185928;28;20388;-77
2023/08/12 00:46:52;;;;;;;;;;;;;;;19.03;56.34;95166.50;4221200;28;19982;-76
2023/08/12 00:48:54;;;;;;;;;;;;;;;19.03;56.47;95174.47;4219636;28;19927;-75
2023/08/12 00:50:56;;;;;;;;;;;;;;;19.08;56.29;95174.72;4224456;28;19924;-76
2023/08/12 00:52:58;;;;;;;;;;;;;;;19.08;56.29;95169.41;4222588;28;20651;-78
2023/08/12 00:55:00;;;;;;;;;;;;;;;19.03;56.40;95172.63;4221068;28;19959;-77
2023/08/12 00:57:01;;;;;;;;;;;;;;;19.05;56.34;95169.78;4219745;28;20002;-77
2023/08/12 00:59:04;;;;;;;;;;;;;;;19.10;56.28;95169.19;4202356;28;19932;-76
2023/08/12 01:01:06;;;;;;;;;;;;;;;19.06;56.23;95171.44;4216208;28;20030;-76
2023/08/12 01:03:07;;;;;;;;;;;;;;;19.03;56.29;95164.66;4197236;28;19925;-77
2023/08/12 01:05:09;;;;;;;;;;;;;;;19.00;56.30;95161.63;4199472;28;20313;-77
2023/08/12 01:07:11;;;;;;;;;;;;;;;19.03;56.41;95163.88;4219794;28;20466;-77
2023/08/12 01:09:13;;;;;;;;;;;;;;;19.05;55.86;95159.16;4209809;28;19932;-77
2023/08/12 01:11:25;;;;;;;;;;;;;;;19.07;55.77;95161.63;4213968;28;20018;-75
2023/08/12 01:13:34;;;;;;;;;;;;;;;19.07;55.58;95161.63;4208097;28;19928;-74
2023/08/12 01:15:36;;;;;;;;;;;;;;;19.03;55.48;95161.19;4203058;28;20104;-76
2023/08/12 01:17:37;;;;;;;;;;;;;;;19.03;55.33;95159.38;4231655;28;19939;-77
2023/08/12 01:19:39;;;;;;;;;;;;;;;19.05;55.52;95151.22;4200923;28;20368;-76
2023/08/12 01:21:43;;;;;;;;;;;;;;;19.02;55.35;95159.59;4217590;28;19986;-77
2023/08/12 01:23:44;;;;;;;;;;;;;;;19.08;55.30;95160.59;4197778;28;20121;-75
2023/08/12 01:25:46;;;;;;;;;;;;;;;19.07;55.24;95156.31;4214955;28;19932;-75
2023/08/12 01:27:48;;;;;;;;;;;;;;;18.99;55.08;95158.16;4224114;28;19947;-77
2023/08/12 01:29:50;;;;;;;;;;;;;;;18.99;55.19;95152.00;4222610;27;19959;-76
2023/08/12 01:31:53;;;;;;;;;;;;;;;18.95;55.00;95156.91;4219499;28;19924;-79
2023/08/12 01:33:56;;;;;;;;;;;;;;;18.94;55.38;95151.78;4203634;28;19925;-77
2023/08/12 01:36:00;;;;;;;;;;;;;;;18.93;55.20;95147.47;4206985;28;20015;-77
2023/08/12 01:38:02;;;;;;;;;;;;;;;18.89;55.24;95148.94;4197030;28;19975;-78
2023/08/12 01:40:04;;;;;;;;;;;;;;;18.80;55.69;95151.75;4204817;28;19935;-76
2023/08/12 01:42:06;;;;;;;;;;;;;;;18.83;55.41;95151.34;4197922;28;19932;-76
2023/08/12 01:44:08;;;;;;;;;;;;;;;18.87;55.64;95150.97;4191849;28;19931;-76
2023/08/12 01:46:09;;;;;;;;;;;;;;;18.86;55.58;95154.63;4209602;28;19931;-76
2023/08/12 01:48:11;;;;;;;;;;;;;;;18.79;55.82;95150.09;4210884;28;19983;-75
2023/08/12 01:50:13;;;;;;;;;;;;;;;18.75;55.82;95155.97;4227818;28;20051;-75
2023/08/12 01:52:15;;;;;;;;;;;;;;;18.76;55.95;95158.44;4228762;27;19936;-76
2023/08/12 01:54:17;;;;;;;;;;;;;;;18.70;55.91;95155.78;4227823;28;20358;-76
2023/08/12 01:56:18;;;;;;;;;;;;;;;18.68;56.10;95158.63;4230909;27;20243;-75
2023/08/12 01:58:20;;;;;;;;;;;;;;;18.71;55.87;95158.19;4190937;28;20078;-79
2023/08/12 02:00:22;;;;;;;;;;;;;;;18.73;56.07;95152.72;4226729;28;20081;-76
2023/08/12 02:02:25;;;;;;;;;;;;;;;18.62;56.16;95151.44;4228031;28;19945;-75
2023/08/12 02:04:26;;;;;;;;;;;;;;;18.64;56.20;95157.38;4228430;28;20424;-77
2023/08/12 02:06:28;;;;;;;;;;;;;;;18.62;55.84;95156.75;4226642;28;20008;-77
2023/08/12 02:08:30;;;;;;;;;;;;;;;18.61;55.78;95163.91;4232335;27;19927;-77
2023/08/12 02:10:34;;;;;;;;;;;;;;;18.58;55.65;95159.00;4236648;27;20311;-77
2023/08/12 02:12:35;;;;;;;;;;;;;;;18.60;55.44;95156.13;4227701;28;19936;-78
2023/08/12 02:14:38;;;;;;;;;;;;;;;18.61;55.94;95152.47;4227424;28;19924;-77
2023/08/12 02:16:39;;;;;;;;;;;;;;;18.58;55.83;95152.84;4218110;28;19924;-77
2023/08/12 02:18:41;;;;;;;;;;;;;;;18.60;55.78;95156.94;4223951;28;19981;-76
2023/08/12 02:20:43;;;;;;;;;;;;;;;18.62;55.84;95154.09;4228936;28;19993;-77
2023/08/12 02:22:44;;;;;;;;;;;;;;;18.57;55.93;95153.88;4228356;28;19933;-77
2023/08/12 02:24:47;;;;;;;;;;;;;;;18.58;55.94;95148.38;4225277;28;19939;-78
2023/08/12 02:26:48;;;;;;;;;;;;;;;18.54;56.29;95147.13;4229020;28;20022;-79
2023/08/12 02:28:51;;;;;;;;;;;;;;;18.55;56.28;95153.25;4227888;28;19928;-79
2023/08/12 02:30:53;;;;;;;;;;;;;;;18.51;56.37;95152.00;4212576;28;19946;-77
2023/08/12 02:32:54;;;;;;;;;;;;;;;18.53;55.93;95164.06;4219250;28;20017;-77
2023/08/12 02:34:56;;;;;;;;;;;;;;;18.54;55.95;95156.91;4223122;28;19931;-78
2023/08/12 02:36:58;;;;;;;;;;;;;;;18.55;55.65;95153.25;4227880;28;20438;-76
2023/08/12 02:39:00;;;;;;;;;;;;;;;18.53;55.85;95150.78;4236751;27;19963;-77
2023/08/12 02:41:02;;;;;;;;;;;;;;;18.44;55.72;95156.47;4223890;28;20278;-78
2023/08/12 02:43:04;;;;;;;;;;;;;;;18.45;55.72;95158.09;4229644;28;20021;-77
2023/08/12 02:45:06;;;;;;;;;;;;;;;18.45;55.53;95161.56;4216573;28;19994;-77
2023/08/12 02:47:07;;;;;;;;;;;;;;;18.48;55.59;95163.03;4221992;28;20007;-78
2023/08/12 02:49:09;;;;;;;;;;;;;;;18.46;55.77;95163.22;4229524;28;19924;-77
2023/08/12 02:51:12;;;;;;;;;;;;;;;18.50;55.42;95166.28;4222471;28;19962;-77
2023/08/12 02:53:15;;;;;;;;;;;;;;;18.49;55.31;95165.47;4235176;27;19928;-76
2023/08/12 02:55:17;;;;;;;;;;;;;;;18.49;55.13;95169.94;4253723;27;19938;-75
2023/08/12 02:57:18;;;;;;;;;;;;;;;18.41;55.23;95169.09;4244793;28;19962;-76
2023/08/12 02:59:20;;;;;;;;;;;;;;;18.39;55.21;95171.13;4239355;28;19924;-75
2023/08/12 03:01:21;;;;;;;;;;;;;;;18.39;55.00;95163.19;4231592;28;19923;-76
2023/08/12 03:03:23;;;;;;;;;;;;;;;18.35;55.09;95164.59;4235819;28;19924;-76
2023/08/12 03:05:25;;;;;;;;;;;;;;;18.35;55.08;95164.59;4209765;28;19947;-77
2023/08/12 03:07:26;;;;;;;;;;;;;;;18.42;54.99;95170.72;4211277;28;19930;-79
2023/08/12 03:09:28;;;;;;;;;;;;;;;18.45;54.89;95169.53;4223722;28;19928;-75
2023/08/12 03:11:30;;;;;;;;;;;;;;;18.45;54.65;95174.81;4236332;28;20001;-76
2023/08/12 03:13:31;;;;;;;;;;;;;;;18.35;55.41;95172.53;4231532;28;19969;-75
2023/08/12 03:15:33;;;;;;;;;;;;;;;18.32;55.23;95175.56;4237902;28;19934;-75
2023/08/12 03:17:34;;;;;;;;;;;;;;;18.28;55.72;95181.47;4224983;28;19963;-77
2023/08/12 03:19:36;;;;;;;;;;;;;;;18.24;56.10;95170.44;4213131;28;19996;-76
2023/08/12 03:21:38;;;;;;;;;;;;;;;18.11;56.56;95173.84;4226835;27;19924;-78
2023/08/12 03:23:40;;;;;;;;;;;;;;;18.05;56.96;95176.41;4214195;28;19971;-78
2023/08/12 03:25:42;;;;;;;;;;;;;;;17.74;57.92;95173.09;4202451;28;20043;-77
2023/08/12 03:27:43;;;;;;;;;;;;;;;17.69;58.28;95174.72;4208002;28;19974;-77
2023/08/12 03:29:45;;;;;;;;;;;;;;;17.71;58.28;95180.63;4221452;28;19940;-77
2023/08/12 03:31:46;;;;;;;;;;;;;;;17.70;57.86;95177.16;4224949;28;19935;-75
2023/08/12 03:33:49;;;;;;;;;;;;;;;17.78;57.70;95182.31;4223276;28;19933;-76
2023/08/12 03:35:50;;;;;;;;;;;;;;;17.84;57.27;95185.25;4201507;28;19929;-74
2023/08/12 03:37:54;;;;;;;;;;;;;;;17.92;57.08;95179.81;4211153;28;19932;-77
2023/08/12 03:39:59;;;;;;;;;;;;;;;18.00;56.96;95174.34;4216809;28;22015;-76
2023/08/12 03:42:00;;;;;;;;;;;;;;;18.08;56.67;95182.16;4217779;28;20413;-77
2023/08/12 03:44:02;;;;;;;;;;;;;;;18.13;56.42;95178.91;4218840;27;20274;-77
2023/08/12 03:46:04;;;;;;;;;;;;;;;18.16;56.31;95181.19;4217633;28;19939;-77
2023/08/12 03:48:05;;;;;;;;;;;;;;;18.16;56.34;95187.31;4224784;28;20006;-76
2023/08/12 03:50:07;;;;;;;;;;;;;;;18.24;56.01;95180.22;4222974;28;19988;-77
2023/08/12 03:52:11;;;;;;;;;;;;;;;18.32;55.82;95183.53;4199261;28;19925;-76
2023/08/12 03:54:13;;;;;;;;;;;;;;;18.39;55.46;95184.41;4202699;28;19989;-78
2023/08/12 03:56:16;;;;;;;;;;;;;;;18.47;55.17;95185.25;4225419;28;20026;-75
2023/08/12 03:58:17;;;;;;;;;;;;;;;18.52;55.22;95188.13;4211686;28;19932;-76
2023/08/12 04:00:19;;;;;;;;;;;;;;;18.58;55.14;95187.34;4218879;28;19934;-77
2023/08/12 04:02:21;;;;;;;;;;;;;;;18.63;55.02;95183.09;4226033;28;19934;-80
2023/08/12 04:04:23;;;;;;;;;;;;;;;18.64;55.22;95191.88;4211758;28;19935;-77
2023/08/12 04:06:25;;;;;;;;;;;;;;;18.57;55.50;95188.38;4225399;28;19932;-76
2023/08/12 04:08:26;;;;;;;;;;;;;;;18.54;55.47;95184.28;4200673;28;20044;-77
2023/08/12 04:10:28;;;;;;;;;;;;;;;18.51;55.68;95189.16;4220675;28;20243;-77
2023/08/12 04:12:30;;;;;;;;;;;;;;;18.40;55.87;95179.91;4214631;28;20030;-78
2023/08/12 04:14:31;;;;;;;;;;;;;;;18.44;55.96;95183.00;4215269;28;19932;-78
2023/08/12 04:16:33;;;;;;;;;;;;;;;18.42;55.98;95189.31;4226935;28;20066;-77
2023/08/12 04:18:35;;;;;;;;;;;;;;;18.37;56.06;95189.09;4219222;28;20355;-78
2023/08/12 04:20:37;;;;;;;;;;;;;;;18.16;56.40;95186.50;4219939;28;20228;-77
2023/08/12 04:22:38;;;;;;;;;;;;;;;18.25;56.52;95190.63;4213314;28;19928;-78
2023/08/12 04:24:40;;;;;;;;;;;;;;;18.34;56.23;95197.41;4193589;28;19936;-77
2023/08/12 04:26:42;;;;;;;;;;;;;;;18.49;55.82;95199.13;4212121;28;19925;-76
2023/08/12 04:28:43;;;;;;;;;;;;;;;18.57;55.83;95196.31;4195822;28;20083;-76
2023/08/12 04:30:46;;;;;;;;;;;;;;;18.55;55.77;95198.34;4217305;28;19946;-76
2023/08/12 04:32:47;;;;;;;;;;;;;;;18.56;55.16;95192.88;4213206;28;19986;-77
2023/08/12 04:34:49;;;;;;;;;;;;;;;18.54;55.18;95194.06;4214104;28;19964;-76
2023/08/12 04:36:51;;;;;;;;;;;;;;;18.26;55.47;95189.59;4218467;28;20444;-78
2023/08/12 04:38:53;;;;;;;;;;;;;;;18.36;56.00;95194.56;4216025;28;20370;-75
2023/08/12 04:40:54;;;;;;;;;;;;;;;18.21;56.72;95192.03;4217370;28;20361;-77
2023/08/12 04:42:56;;;;;;;;;;;;;;;17.99;56.70;95197.38;4222177;28;19928;-78
2023/08/12 04:44:58;;;;;;;;;;;;;;;17.66;57.38;95201.56;4216205;28;19924;-78
2023/08/12 04:46:59;;;;;;;;;;;;;;;17.56;57.48;95196.59;4198828;28;19924;-77
2023/08/12 04:49:01;;;;;;;;;;;;;;;17.37;58.28;95206.00;4200886;28;19973;-77
2023/08/12 04:51:05;;;;;;;;;;;;;;;17.31;58.20;95199.59;4222425;28;19928;-78
2023/08/12 04:53:06;;;;;;;;;;;;;;;17.26;58.65;95198.56;4224660;28;19924;-79
2023/08/12 04:55:10;;;;;;;;;;;;;;;17.33;58.65;95196.78;4207787;28;20370;-78
2023/08/12 04:57:12;;;;;;;;;;;;;;;17.24;59.21;95203.22;4229816;27;19924;-78
2023/08/12 04:59:14;;;;;;;;;;;;;;;17.54;58.82;95193.31;4229581;28;19927;-78
2023/08/12 05:01:15;;;;;;;;;;;;;;;17.48;58.21;95194.88;4228576;28;19943;-80
2023/08/12 05:03:17;;;;;;;;;;;;;;;17.25;59.06;95202.19;4229165;28;19962;-78
2023/08/12 05:05:18;;;;;;;;;;;;;;;17.21;59.43;95201.78;4229190;28;19932;-78
2023/08/12 05:07:20;;;;;;;;;;;;;;;17.37;59.29;95198.84;4216929;28;20019;-78
2023/08/12 05:09:25;;;;;;;;;;;;;;;17.40;58.85;95205.59;4216304;28;19923;-79
2023/08/12 05:11:26;;;;;;;;;;;;;;;17.34;59.17;95201.91;4220599;28;19931;-78
2023/08/12 05:13:29;;;;;;;;;;;;;;;17.31;59.11;95206.75;4220989;28;19928;-79
2023/08/12 05:15:31;;;;;;;;;;;;;;;17.23;59.38;95205.06;4228361;27;20042;-79
2023/08/12 05:17:32;;;;;;;;;;;;;;;17.22;59.85;95210.53;4214233;28;19924;-78
2023/08/12 05:19:34;;;;;;;;;;;;;;;17.34;59.51;95204.56;4204738;28;20342;-75
2023/08/12 05:21:36;;;;;;;;;;;;;;;17.39;59.79;95201.31;4211564;28;20333;-78
2023/08/12 05:23:39;;;;;;;;;;;;;;;17.52;59.71;95203.28;4230591;27;19923;-76
2023/08/12 05:25:40;;;;;;;;;;;;;;;17.81;58.96;95212.94;4219866;28;20278;-79
2023/08/12 05:27:42;;;;;;;;;;;;;;;17.76;58.38;95212.66;4218384;28;19999;-78
2023/08/12 05:29:44;;;;;;;;;;;;;;;17.49;59.03;95209.78;4215288;28;19944;-78
2023/08/12 05:31:45;;;;;;;;;;;;;;;17.57;59.60;95214.97;4228336;28;19938;-77
2023/08/12 05:33:47;;;;;;;;;;;;;;;17.80;58.81;95209.44;4224645;28;19947;-80
2023/08/12 05:35:49;;;;;;;;;;;;;;;17.79;58.86;95215.75;4222723;27;19928;-76
2023/08/12 05:37:50;;;;;;;;;;;;;;;17.98;58.56;95219.63;4224450;28;19938;-82
2023/08/12 05:39:52;;;;;;;;;;;;;;;18.23;58.01;95207.75;4223011;28;19928;-76
2023/08/12 05:41:53;;;;;;;;;;;;;;;18.38;57.20;95221.72;4221834;27;20236;-77
2023/08/12 05:43:55;;;;;;;;;;;;;;;18.59;57.11;95220.84;4205115;28;19932;-77
2023/08/12 05:45:57;;;;;;;;;;;;;;;18.86;56.62;95218.31;4217255;28;19924;-78
2023/08/12 05:47:59;;;;;;;;;;;;;;;18.96;56.09;95210.81;4213343;28;20248;-76
2023/08/12 05:50:01;;;;;;;;;;;;;;;19.01;55.55;95217.19;4227113;27;19928;-77
2023/08/12 05:52:03;;;;;;;;;;;;;;;19.17;55.12;95212.53;4228770;28;20231;-78
2023/08/12 05:54:05;;;;;;;;;;;;;;;19.27;54.78;95215.59;4219109;28;20398;-79
2023/08/12 05:56:06;;;;;;;;;;;;;;;19.37;54.68;95210.72;4216467;28;20220;-78
2023/08/12 05:58:08;;;;;;;;;;;;;;;19.48;54.18;95204.00;4216807;28;19923;-77
2023/08/12 06:00:10;;;;;;;;;;;;;;;19.58;53.88;95204.44;4231258;27;19923;-77
2023/08/12 06:02:12;;;;;;;;;;;;;;;19.67;53.71;95204.25;4228087;27;20354;-77
2023/08/12 06:04:14;;;;;;;;;;;;;;;19.59;53.46;95207.91;4239374;27;19927;-79
2023/08/12 06:06:15;;;;;;;;;;;;;;;19.64;53.35;95202.81;4214998;28;19928;-77
2023/08/12 06:08:17;;;;;;;;;;;;;;;19.65;53.64;95202.59;4218520;28;20010;-76
2023/08/12 06:10:19;;;;;;;;;;;;;;;19.72;53.64;95194.66;4219707;28;19959;-79
2023/08/12 06:12:20;;;;;;;;;;;;;;;19.40;53.49;95197.06;4201099;28;19962;-80
2023/08/12 06:14:22;;;;;;;;;;;;;;;18.84;55.15;95197.28;4220860;28;19928;-77
2023/08/12 06:16:24;;;;;;;;;;;;;;;18.97;55.39;95194.69;4199611;28;19924;-77
2023/08/12 06:18:25;;;;;;;;;;;;;;;18.79;55.89;95202.38;4206559;28;20450;-77
2023/08/12 06:20:27;;;;;;;;;;;;;;;18.93;55.51;95184.66;4221220;28;19923;-78
2023/08/12 06:22:28;;;;;;;;;;;;;;;19.19;54.93;95187.41;4201809;28;19963;-78
2023/08/12 06:24:30;;;;;;;;;;;;;;;19.45;54.26;95196.44;4221349;28;19934;-76
2023/08/12 06:26:32;;;;;;;;;;;;;;;19.63;53.41;95188.69;4197997;28;19944;-80
2023/08/12 06:28:34;;;;;;;;;;;;;;;19.78;52.98;95195.69;4220845;28;19924;-78
2023/08/12 06:30:37;;;;;;;;;;;;;;;19.94;52.90;95189.13;4216880;28;19928;-77
2023/08/12 06:32:38;;;;;;;;;;;;;;;19.53;53.38;95190.94;4220158;27;20190;-76
2023/08/12 06:34:41;;;;;;;;;;;;;;;19.16;54.37;95189.63;4223268;27;19967;-81
2023/08/12 06:36:42;;;;;;;;;;;;;;;18.94;55.03;95181.00;4201043;28;20315;-78
2023/08/12 06:38:44;;;;;;;;;;;;;;;19.08;55.14;95176.53;4204904;28;19935;-80
2023/08/12 06:40:46;;;;;;;;;;;;;;;19.28;55.09;95179.25;4204013;28;19928;-77
2023/08/12 06:42:48;;;;;;;;;;;;;;;19.60;54.42;95175.00;4215439;28;20314;-78
2023/08/12 06:44:54;;;;;;;;;;;;;;;19.89;53.37;95178.31;4198944;28;19962;-76
2023/08/12 06:46:55;;;;;;;;;;;;;;;20.10;52.88;95172.78;4214690;28;19928;-77
2023/08/12 06:48:59;;;;;;;;;;;;;;;20.14;52.17;95174.00;4227931;27;20319;-76
2023/08/12 06:51:06;;;;;;;;;;;;;;;19.78;53.38;95175.25;4211759;28;20410;-77
2023/08/12 06:53:08;;;;;;;;;;;;;;;19.93;53.34;95174.22;4227611;28;19972;-77
2023/08/12 06:55:10;;;;;;;;;;;;;;;20.01;53.15;95166.84;4222781;28;20023;-89
2023/08/12 06:57:15;;;;;;;;;;;;;;;20.16;52.54;95165.81;4224043;27;19931;-77
2023/08/12 06:59:17;;;;;;;;;;;;;;;19.96;53.19;95179.13;4227298;28;19930;-78
2023/08/12 07:01:18;;;;;;;;;;;;;;;20.04;53.31;95176.25;4228656;27;19927;-77
2023/08/12 07:03:22;;;;;;;;;;;;;;;20.01;53.86;95172.16;4210094;28;19970;-78
2023/08/12 07:05:23;;;;;;;;;;;;;;;20.27;53.74;95169.69;4192744;28;19990;-78
2023/08/12 07:07:25;;;;;;;;;;;;;;;20.41;53.21;95166.78;4218665;28;19928;-77
2023/08/12 07:09:27;;;;;;;;;;;;;;;20.43;53.34;95167.41;4220010;28;19950;-80
2023/08/12 07:11:28;;;;;;;;;;;;;;;20.33;52.50;95166.19;4228009;27;19950;-76
2023/08/12 07:13:33;;;;;;;;;;;;;;;20.44;52.29;95157.56;4220333;27;20010;-79
2023/08/12 07:15:34;;;;;;;;;;;;;;;20.40;50.97;95161.66;4212457;28;20346;-76
2023/08/12 07:17:36;;;;;;;;;;;;;;;20.53;51.13;95166.13;4224531;27;19924;-76
2023/08/12 07:19:42;;;;;;;;;;;;;;;20.51;50.43;95168.19;4229414;27;20346;-85
2023/08/12 07:21:45;;;;;;;;;;;;;;;20.55;49.91;95166.75;4202393;28;19934;-86
2023/08/12 07:23:47;;;;;;;;;;;;;;;20.68;48.71;95165.91;4230127;28;19978;-76
2023/08/12 07:26:03;;;;;;;;;;;;;;;21.00;48.17;95162.28;4196137;28;19944;-76
2023/08/12 07:28:05;;;;;;;;;;;;;;;20.98;48.40;95167.00;4219081;28;19961;-76
2023/08/12 07:30:07;;;;;;;;;;;;;;;21.03;48.90;95164.53;4201264;28;20225;-78
2023/08/12 07:32:09;;;;;;;;;;;;;;;21.04;49.17;95168.03;4213174;28;19934;-80
2023/08/12 07:34:13;;;;;;;;;;;;;;;21.31;49.13;95163.34;4222695;28;20347;-77
2023/08/12 07:36:14;;;;;;;;;;;;;;;21.21;48.76;95165.69;4232672;27;19924;-75
2023/08/12 07:41:02;;;;;;;;;;;;;;;21.39;48.02;95160.44;4189397;28;20036;-82
2023/08/12 07:43:39;;;;;;;;;;;;;;;21.38;47.50;95161.47;4206700;28;19940;-75
2023/08/12 07:45:57;;;;;;;;;;;;;;;21.29;48.06;95154.75;4228100;27;19933;-79
2023/08/12 07:48:10;;;;;;;;;;;;;;;21.37;47.77;95157.16;4221751;28;20015;-76
2023/08/12 07:50:12;;;;;;;;;;;;;;;21.51;47.62;95152.59;4217296;28;19954;-75
2023/08/12 07:52:14;;;;;;;;;;;;;;;21.62;47.81;95151.91;4223538;28;20015;-77
2023/08/12 07:54:15;;;;;;;;;;;;;;;21.84;47.94;95149.66;4207692;28;20450;-79
2023/08/12 07:56:17;;;;;;;;;;;;;;;22.08;47.03;95147.19;4230692;27;20063;-79
2023/08/12 07:58:18;;;;;;;;;;;;;;;22.33;46.66;95147.19;4232160;27;19967;-77
2023/08/12 08:00:20;;;;;;;;;;;;;;;22.47;46.07;95145.19;4221093;28;19927;-77
2023/08/12 08:02:22;;;;;;;;;;;;;;;22.57;45.48;95144.69;4226390;27;19963;-77
2023/08/12 08:04:23;;;;;;;;;;;;;;;22.09;46.49;95138.97;4217820;28;19923;-76
2023/08/12 08:06:25;;;;;;;;;;;;;;;22.11;46.73;95138.75;4206026;28;19971;-77
2023/08/12 08:08:27;;;;;;;;;;;;;;;22.05;46.76;95139.66;4221698;28;20455;-77
2023/08/12 08:10:28;;;;;;;;;;;;;;;22.19;46.23;95135.00;4217954;28;19931;-76
2023/08/12 08:12:30;;;;;;;;;;;;;;;22.41;45.61;95140.72;4226151;27;19924;-74
2023/08/12 08:14:32;;;;;;;;;;;;;;;22.56;45.89;95137.69;4212243;28;19924;-77
2023/08/12 08:16:33;;;;;;;;;;;;;;;22.69;44.95;95142.88;4215589;28;19988;-78
2023/08/12 08:18:35;;;;;;;;;;;;;;;22.90;44.74;95131.72;4226547;28;19947;-75
2023/08/12 08:20:37;;;;;;;;;;;;;;;23.14;44.95;95129.19;4207441;28;20386;-76
2023/08/12 08:22:39;;;;;;;;;;;;;;;23.30;44.24;95135.75;4227524;28;19931;-76
2023/08/12 08:24:41;;;;;;;;;;;;;;;23.48;43.59;95134.88;4225546;28;20339;-78
2023/08/12 08:26:45;;;;;;;;;;;;;;;23.55;43.59;95130.22;4232448;28;20398;-89
2023/08/12 08:28:47;;;;;;;;;;;;;;;23.35;43.59;95135.06;4207372;28;19977;-80
2023/08/12 08:30:49;;;;;;;;;;;;;;;23.16;43.09;95135.13;4211690;28;20448;-77
2023/08/12 08:32:51;;;;;;;;;;;;;;;22.99;43.09;95128.75;4200474;28;19987;-78
2023/08/12 08:34:55;;;;;;;;;;;;;;;22.63;44.28;95133.13;4219947;28;19927;-76
2023/08/12 08:36:57;;;;;;;;;;;;;;;22.52;44.93;95134.69;4218060;28;19924;-75
2023/08/12 08:38:58;;;;;;;;;;;;;;;22.63;44.73;95128.59;4226564;27;20251;-78
2023/08/12 08:41:00;;;;;;;;;;;;;;;23.01;44.46;95124.03;4221030;28;19978;-78
2023/08/12 08:43:05;;;;;;;;;;;;;;;23.40;43.55;95125.31;4205584;28;20031;-78
2023/08/12 08:45:12;;;;;;;;;;;;;;;23.71;42.43;95120.72;4211928;28;20015;-74
2023/08/12 08:47:13;;;;;;;;;;;;;;;23.45;41.98;95113.94;4232336;28;19987;-78
2023/08/12 08:49:16;;;;;;;;;;;;;;;23.44;41.98;95120.31;4220686;28;20339;-76
2023/08/12 08:51:17;;;;;;;;;;;;;;;23.03;42.64;95121.94;4225923;28;20278;-76
2023/08/12 08:53:20;;;;;;;;;;;;;;;23.06;42.56;95110.81;4232123;28;20597;-83
2023/08/12 08:55:23;;;;;;;;;;;;;;;23.09;42.31;95115.69;4227278;28;20023;-89
2023/08/12 08:57:25;;;;;;;;;;;;;;;23.18;42.22;95119.66;4231823;28;20002;-79
2023/08/12 08:59:46;;;;;;;;;;;;;;;23.26;42.48;95111.34;4216419;28;19924;-80
2023/08/12 09:01:57;;;;;;;;;;;;;;;23.57;42.01;95108.59;4208701;28;19947;-75
2023/08/12 09:04:00;;;;;;;;;;;;;;;23.84;41.93;95109.03;4224128;28;19924;-76
2023/08/12 09:06:03;;;;;;;;;;;;;;;24.00;42.09;95119.03;4215802;28;19924;-77
2023/08/12 09:08:06;;;;;;;;;;;;;;;24.18;41.40;95106.56;4219256;28;19995;-78
2023/08/12 09:10:08;;;;;;;;;;;;;;;24.10;40.99;95105.06;4221927;28;20079;-79
2023/08/12 09:12:10;;;;;;;;;;;;;;;24.27;41.16;95102.50;4225415;28;19928;-77
2023/08/12 09:14:12;;;;;;;;;;;;;;;24.22;41.11;95103.22;4217474;28;19924;-76
2023/08/12 09:16:14;;;;;;;;;;;;;;;23.83;41.44;95110.06;4233034;28;19928;-79
2023/08/12 09:18:16;;;;;;;;;;;;;;;24.00;41.37;95099.47;4219278;28;19943;-81
2023/08/12 09:20:18;;;;;;;;;;;;;;;24.28;41.17;95090.72;4242539;28;20042;-78
2023/08/12 09:22:20;;;;;;;;;;;;;;;24.37;40.47;95091.19;4238712;28;19979;-78
2023/08/12 09:24:25;;;;;;;;;;;;;;;24.04;41.29;95089.94;4207954;28;20030;-79
2023/08/12 09:26:27;;;;;;;;;;;;;;;23.83;41.45;95094.00;4225264;28;19948;-79
2023/08/12 09:28:28;;;;;;;;;;;;;;;23.67;41.70;95090.94;4216136;28;19986;-77
2023/08/12 09:30:33;;;;;;;;;;;;;;;23.62;41.18;95090.03;4233048;28;19931;-77
2023/08/12 09:32:38;;;;;;;;;;;;;;;23.75;41.29;95084.47;4226398;28;19971;-76
2023/08/12 09:34:47;;;;;;;;;;;;;;;23.95;41.08;95086.00;4230113;28;20041;-80
2023/08/12 09:36:49;;;;;;;;;;;;;;;24.18;40.56;95077.13;4225545;28;19928;-78
2023/08/12 09:38:51;;;;;;;;;;;;;;;24.21;40.36;95079.34;4225877;28;19927;-82
2023/08/12 09:40:53;;;;;;;;;;;;;;;24.46;40.49;95069.16;4198003;28;20057;-78
2023/08/12 09:42:55;;;;;;;;;;;;;;;24.70;40.23;95066.47;4221022;28;20363;-77
2023/08/12 09:44:57;;;;;;;;;;;;;;;25.04;39.78;95078.09;4220722;28;19954;-78
2023/08/12 09:46:59;;;;;;;;;;;;;;;25.31;38.55;95072.94;4200590;28;20381;-82
2023/08/12 09:49:01;;;;;;;;;;;;;;;25.42;37.64;95065.06;4226910;27;19932;-81
2023/08/12 09:51:02;;;;;;;;;;;;;;;25.51;37.72;95071.66;4185705;28;19936;-79
2023/08/12 09:53:04;;;;;;;;;;;;;;;25.42;37.75;95060.50;4214339;28;20316;-78
2023/08/12 09:55:08;;;;;;;;;;;;;;;25.43;38.20;95066.72;4225828;28;19939;-79
2023/08/12 09:57:10;;;;;;;;;;;;;;;25.62;38.28;95059.22;4230859;27;19931;-82
2023/08/12 09:59:12;;;;;;;;;;;;;;;25.60;38.12;95058.66;4226461;28;19973;-81
2023/08/12 10:01:13;;;;;;;;;;;;;;;25.65;37.89;95061.44;4197161;28;19932;-82
2023/08/12 10:03:18;;;;;;;;;;;;;;;25.58;38.21;95056.22;4206182;28;19924;-81
2023/08/12 10:05:31;;;;;;;;;;;;;;;25.55;37.50;95051.34;4209165;28;20459;-81
2023/08/12 10:07:33;;;;;;;;;;;;;;;25.72;37.60;95057.50;4216842;28;19951;-83
2023/08/12 10:09:35;;;;;;;;;;;;;;;25.53;37.54;95048.91;4219886;28;20025;-80
2023/08/12 10:11:37;;;;;;;;;;;;;;;25.43;37.63;95047.94;4202764;28;19928;-78
2023/08/12 10:13:40;;;;;;;;;;;;;;;25.70;37.68;95043.53;4230444;28;19927;-80
2023/08/12 10:15:42;;;;;;;;;;;;;;;25.94;36.90;95038.00;4218745;28;19924;-81
2023/08/12 10:17:44;;;;;;;;;;;;;;;25.67;36.70;95043.22;4223264;28;19932;-81
2023/08/12 10:19:45;;;;;;;;;;;;;;;25.02;37.05;95041.88;4234317;27;19966;-85
2023/08/12 10:21:50;;;;;;;;;;;;;;;25.24;37.01;95040.13;4206893;28;19970;-78
2023/08/12 10:23:52;;;;;;;;;;;;;;;25.22;36.77;95036.88;4214101;28;19981;-81
2023/08/12 10:25:54;;;;;;;;;;;;;;;25.39;36.99;95036.88;4218594;28;19967;-78
2023/08/12 10:27:55;;;;;;;;;;;;;;;25.68;36.19;95032.25;4239984;27;20011;-79
2023/08/12 10:29:57;;;;;;;;;;;;;;;25.88;36.21;95029.06;4230349;27;20287;-76
2023/08/12 10:32:00;;;;;;;;;;;;;;;26.11;36.57;95032.59;4221836;27;19924;-79
2023/08/12 10:34:03;;;;;;;;;;;;;;;26.02;36.56;95026.84;4204871;28;19927;-82
2023/08/12 10:36:06;;;;;;;;;;;;;;;25.84;36.76;95027.09;4208952;28;19924;-75
2023/08/12 10:38:08;;;;;;;;;;;;;;;25.75;36.71;95024.03;4227647;28;19927;-79
2023/08/12 10:40:20;;;;;;;;;;;;;;;26.05;36.49;95022.84;4222098;28;19924;-79